aviador You're here:

EPKT Decoded Metar

KATOWICE in POLAND
Report Time2017-09-24 12:00:00
UTC Time2017-09-24 12:10:16
Flight Rules vfr VFR
Wind080° at 06 kt
W.Decomp.*RWY 09: 5.8 kt HW 1.5 kt LCW
W.Rank080° ranks 8
Current wind is above 080° avg. (5.5)
Visibility9999 m
Phenomena:N/A
Clouds:Scattered 025 Hf
Broken 030 Hf
Expected CloudBase > 1,600 ft AGL from Temp-Dew spread
Ceiling3,000 ft
Temp15°C (ISA +2)
Dew Point11°C (77% RH)
AAT13.2°C
QNH1021 hPa
Density Alt1,060 ft
Elevation932 ft
Report Wrong Elevation
Raw Report
METAR EPKT 241200Z 08006KT 9999 SCT025 BKN030 15/11 Q1021=

Extra information for EPKT:More info

Metar Taf Metar & Taf Last 4 Metars F.Rules Stats Wind Profile Meteogram Temp Stats Airport Information Weather charts Add Link Nearby VenuesMetar ALERT Operation Metar Decoded Social comments